sensor_id;sensor_type;location;lat;lon;timestamp;P1;durP1;ratioP1;P2;durP2;ratioP2
68353;SDS011;55274;43.060;25.618;2023-07-30T00:01:50;10.80;;;5.05;;
68353;SDS011;55274;43.060;25.618;2023-07-30T00:04:16;10.02;;;5.22;;
68353;SDS011;55274;43.060;25.618;2023-07-30T00:06:42;21.05;;;5.65;;
68353;SDS011;55274;43.060;25.618;2023-07-30T00:09:07;12.55;;;5.10;;
68353;SDS011;55274;43.060;25.618;2023-07-30T00:11:33;10.27;;;5.43;;
68353;SDS011;55274;43.060;25.618;2023-07-30T00:13:59;9.55;;;4.90;;
68353;SDS011;55274;43.060;25.618;2023-07-30T00:16:25;12.93;;;5.28;;
68353;SDS011;55274;43.060;25.618;2023-07-30T00:18:51;19.55;;;5.10;;
68353;SDS011;55274;43.060;25.618;2023-07-30T00:21:17;11.00;;;5.07;;
68353;SDS011;55274;43.060;25.618;2023-07-30T00:23:43;9.30;;;4.70;;
68353;SDS011;55274;43.060;25.618;2023-07-30T00:26:08;12.48;;;4.85;;
68353;SDS011;55274;43.060;25.618;2023-07-30T00:28:34;9.20;;;4.78;;
68353;SDS011;55274;43.060;25.618;2023-07-30T00:31:00;8.70;;;4.40;;
68353;SDS011;55274;43.060;25.618;2023-07-30T00:33:25;9.15;;;4.55;;
68353;SDS011;55274;43.060;25.618;2023-07-30T00:35:51;9.57;;;4.32;;
68353;SDS011;55274;43.060;25.618;2023-07-30T00:38:18;6.30;;;3.90;;
68353;SDS011;55274;43.060;25.618;2023-07-30T00:40:44;6.30;;;3.53;;
68353;SDS011;55274;43.060;25.618;2023-07-30T00:43:10;5.20;;;4.22;;
68353;SDS011;55274;43.060;25.618;2023-07-30T00:45:36;7.80;;;4.22;;
68353;SDS011;55274;43.060;25.618;2023-07-30T00:48:05;6.63;;;3.78;;
68353;SDS011;55274;43.060;25.618;2023-07-30T00:50:31;7.00;;;3.95;;
68353;SDS011;55274;43.060;25.618;2023-07-30T00:52:58;11.50;;;4.90;;
68353;SDS011;55274;43.060;25.618;2023-07-30T00:55:24;8.50;;;3.85;;
68353;SDS011;55274;43.060;25.618;2023-07-30T00:57:50;8.95;;;4.22;;
68353;SDS011;55274;43.060;25.618;2023-07-30T01:00:16;10.20;;;3.33;;
68353;SDS011;55274;43.060;25.618;2023-07-30T01:02:42;8.70;;;4.40;;
68353;SDS011;55274;43.060;25.618;2023-07-30T01:05:08;6.88;;;4.28;;
68353;SDS011;55274;43.060;25.618;2023-07-30T01:07:34;9.10;;;4.32;;
68353;SDS011;55274;43.060;25.618;2023-07-30T01:10:00;13.68;;;4.00;;
68353;SDS011;55274;43.060;25.618;2023-07-30T01:12:28;7.70;;;4.40;;
68353;SDS011;55274;43.060;25.618;2023-07-30T01:14:55;21.02;;;4.55;;
68353;SDS011;55274;43.060;25.618;2023-07-30T01:17:22;18.10;;;4.55;;
68353;SDS011;55274;43.060;25.618;2023-07-30T01:19:48;14.05;;;4.00;;
68353;SDS011;55274;43.060;25.618;2023-07-30T01:22:19;8.30;;;4.07;;
68353;SDS011;55274;43.060;25.618;2023-07-30T01:24:46;10.98;;;4.07;;
68353;SDS011;55274;43.060;25.618;2023-07-30T01:27:14;11.15;;;4.40;;
68353;SDS011;55274;43.060;25.618;2023-07-30T01:29:55;10.60;;;4.40;;
68353;SDS011;55274;43.060;25.618;2023-07-30T01:32:29;17.38;;;4.70;;
68353;SDS011;55274;43.060;25.618;2023-07-30T01:34:56;8.70;;;4.28;;
68353;SDS011;55274;43.060;25.618;2023-07-30T01:37:23;10.57;;;3.45;;
68353;SDS011;55274;43.060;25.618;2023-07-30T01:39:50;6.53;;;3.20;;
68353;SDS011;55274;43.060;25.618;2023-07-30T01:42:16;8.00;;;3.38;;
68353;SDS011;55274;43.060;25.618;2023-07-30T01:44:42;10.20;;;3.75;;
68353;SDS011;55274;43.060;25.618;2023-07-30T01:47:08;7.63;;;3.92;;
68353;SDS011;55274;43.060;25.618;2023-07-30T01:49:34;8.55;;;3.65;;
68353;SDS011;55274;43.060;25.618;2023-07-30T01:52:00;8.50;;;4.30;;
68353;SDS011;55274;43.060;25.618;2023-07-30T01:54:25;7.28;;;4.20;;
68353;SDS011;55274;43.060;25.618;2023-07-30T01:56:51;6.70;;;4.40;;
68353;SDS011;55274;43.060;25.618;2023-07-30T01:59:18;7.47;;;3.83;;
68353;SDS011;55274;43.060;25.618;2023-07-30T02:01:43;6.85;;;4.35;;
68353;SDS011;55274;43.060;25.618;2023-07-30T02:04:09;11.50;;;4.47;;
68353;SDS011;55274;43.060;25.618;2023-07-30T02:06:35;6.72;;;3.70;;
68353;SDS011;55274;43.060;25.618;2023-07-30T02:09:01;7.70;;;3.65;;
68353;SDS011;55274;43.060;25.618;2023-07-30T02:11:27;6.63;;;3.95;;
68353;SDS011;55274;43.060;25.618;2023-07-30T02:13:53;6.18;;;3.65;;
68353;SDS011;55274;43.060;25.618;2023-07-30T02:16:19;7.72;;;4.13;;
68353;SDS011;55274;43.060;25.618;2023-07-30T02:18:45;9.68;;;3.92;;
68353;SDS011;55274;43.060;25.618;2023-07-30T02:21:12;7.97;;;3.88;;
68353;SDS011;55274;43.060;25.618;2023-07-30T02:23:38;8.70;;;4.45;;
68353;SDS011;55274;43.060;25.618;2023-07-30T02:26:03;6.10;;;3.80;;
68353;SDS011;55274;43.060;25.618;2023-07-30T02:28:29;6.47;;;3.80;;
68353;SDS011;55274;43.060;25.618;2023-07-30T02:30:55;6.03;;;4.20;;
68353;SDS011;55274;43.060;25.618;2023-07-30T02:33:21;7.78;;;3.90;;
68353;SDS011;55274;43.060;25.618;2023-07-30T02:35:46;15.00;;;4.90;;
68353;SDS011;55274;43.060;25.618;2023-07-30T02:38:12;14.70;;;3.88;;
68353;SDS011;55274;43.060;25.618;2023-07-30T02:40:38;9.90;;;4.10;;
68353;SDS011;55274;43.060;25.618;2023-07-30T02:43:04;9.48;;;4.65;;
68353;SDS011;55274;43.060;25.618;2023-07-30T02:45:29;6.15;;;3.80;;
68353;SDS011;55274;43.060;25.618;2023-07-30T02:47:55;7.13;;;4.05;;
68353;SDS011;55274;43.060;25.618;2023-07-30T02:50:21;17.15;;;5.90;;
68353;SDS011;55274;43.060;25.618;2023-07-30T02:52:47;12.63;;;4.78;;
68353;SDS011;55274;43.060;25.618;2023-07-30T02:55:12;12.73;;;4.53;;
68353;SDS011;55274;43.060;25.618;2023-07-30T02:57:38;9.88;;;4.38;;
68353;SDS011;55274;43.060;25.618;2023-07-30T03:00:04;21.08;;;4.93;;
68353;SDS011;55274;43.060;25.618;2023-07-30T03:02:30;10.27;;;4.47;;
68353;SDS011;55274;43.060;25.618;2023-07-30T03:04:56;9.65;;;3.97;;
68353;SDS011;55274;43.060;25.618;2023-07-30T03:07:22;7.35;;;3.65;;
68353;SDS011;55274;43.060;25.618;2023-07-30T03:09:48;16.85;;;4.00;;
68353;SDS011;55274;43.060;25.618;2023-07-30T03:12:14;17.95;;;3.95;;
68353;SDS011;55274;43.060;25.618;2023-07-30T03:14:39;12.25;;;4.00;;
68353;SDS011;55274;43.060;25.618;2023-07-30T03:17:05;27.52;;;12.50;;
68353;SDS011;55274;43.060;25.618;2023-07-30T03:19:31;8.57;;;4.78;;
68353;SDS011;55274;43.060;25.618;2023-07-30T03:21:57;12.23;;;4.45;;
68353;SDS011;55274;43.060;25.618;2023-07-30T03:24:23;16.48;;;4.75;;
68353;SDS011;55274;43.060;25.618;2023-07-30T03:26:49;10.02;;;3.42;;
68353;SDS011;55274;43.060;25.618;2023-07-30T03:29:15;5.55;;;3.70;;
68353;SDS011;55274;43.060;25.618;2023-07-30T03:31:41;6.70;;;3.80;;
68353;SDS011;55274;43.060;25.618;2023-07-30T03:34:07;5.13;;;3.70;;
68353;SDS011;55274;43.060;25.618;2023-07-30T03:36:32;7.53;;;3.65;;
68353;SDS011;55274;43.060;25.618;2023-07-30T03:38:58;5.40;;;3.97;;
68353;SDS011;55274;43.060;25.618;2023-07-30T03:41:24;8.52;;;4.40;;
68353;SDS011;55274;43.060;25.618;2023-07-30T03:43:50;9.18;;;3.80;;
68353;SDS011;55274;43.060;25.618;2023-07-30T03:46:16;19.60;;;4.03;;
68353;SDS011;55274;43.060;25.618;2023-07-30T03:48:42;11.48;;;4.13;;
68353;SDS011;55274;43.060;25.618;2023-07-30T03:51:08;7.88;;;3.72;;
68353;SDS011;55274;43.060;25.618;2023-07-30T03:53:34;6.28;;;3.63;;
68353;SDS011;55274;43.060;25.618;2023-07-30T03:55:59;8.15;;;4.00;;
68353;SDS011;55274;43.060;25.618;2023-07-30T03:58:26;8.48;;;4.13;;
68353;SDS011;55274;43.060;25.618;2023-07-30T04:00:51;6.70;;;3.85;;
68353;SDS011;55274;43.060;25.618;2023-07-30T04:03:17;15.05;;;4.13;;
68353;SDS011;55274;43.060;25.618;2023-07-30T04:05:43;7.20;;;3.88;;
68353;SDS011;55274;43.060;25.618;2023-07-30T04:08:09;7.03;;;3.90;;
68353;SDS011;55274;43.060;25.618;2023-07-30T04:10:34;8.02;;;3.83;;
68353;SDS011;55274;43.060;25.618;2023-07-30T04:13:01;9.35;;;4.07;;
68353;SDS011;55274;43.060;25.618;2023-07-30T04:15:27;6.45;;;3.72;;
68353;SDS011;55274;43.060;25.618;2023-07-30T04:17:53;7.38;;;3.92;;
68353;SDS011;55274;43.060;25.618;2023-07-30T04:20:19;10.60;;;4.40;;
68353;SDS011;55274;43.060;25.618;2023-07-30T04:22:44;8.68;;;4.30;;
68353;SDS011;55274;43.060;25.618;2023-07-30T04:25:10;6.40;;;4.20;;
68353;SDS011;55274;43.060;25.618;2023-07-30T04:27:36;9.68;;;3.85;;
68353;SDS011;55274;43.060;25.618;2023-07-30T04:30:03;6.43;;;3.63;;
68353;SDS011;55274;43.060;25.618;2023-07-30T04:32:30;6.47;;;3.90;;
68353;SDS011;55274;43.060;25.618;2023-07-30T04:34:55;7.60;;;4.70;;
68353;SDS011;55274;43.060;25.618;2023-07-30T04:37:21;10.82;;;3.97;;
68353;SDS011;55274;43.060;25.618;2023-07-30T04:39:47;6.95;;;3.88;;
68353;SDS011;55274;43.060;25.618;2023-07-30T04:42:13;6.20;;;3.67;;
68353;SDS011;55274;43.060;25.618;2023-07-30T04:44:40;10.68;;;4.32;;
68353;SDS011;55274;43.060;25.618;2023-07-30T04:47:06;8.32;;;4.07;;
68353;SDS011;55274;43.060;25.618;2023-07-30T04:49:32;5.80;;;3.80;;
68353;SDS011;55274;43.060;25.618;2023-07-30T04:51:58;8.18;;;4.80;;
68353;SDS011;55274;43.060;25.618;2023-07-30T04:54:24;11.88;;;6.25;;
68353;SDS011;55274;43.060;25.618;2023-07-30T04:56:50;10.63;;;6.50;;
68353;SDS011;55274;43.060;25.618;2023-07-30T04:59:15;13.40;;;7.50;;
68353;SDS011;55274;43.060;25.618;2023-07-30T05:01:41;12.85;;;6.28;;
68353;SDS011;55274;43.060;25.618;2023-07-30T05:04:07;17.50;;;9.60;;
68353;SDS011;55274;43.060;25.618;2023-07-30T05:06:33;27.38;;;14.52;;
68353;SDS011;55274;43.060;25.618;2023-07-30T05:08:58;33.40;;;17.10;;
68353;SDS011;55274;43.060;25.618;2023-07-30T05:11:24;31.45;;;15.23;;
68353;SDS011;55274;43.060;25.618;2023-07-30T05:13:50;29.50;;;17.02;;
68353;SDS011;55274;43.060;25.618;2023-07-30T05:16:16;32.47;;;17.25;;
68353;SDS011;55274;43.060;25.618;2023-07-30T05:18:42;31.23;;;17.83;;
68353;SDS011;55274;43.060;25.618;2023-07-30T05:21:07;25.95;;;15.35;;
68353;SDS011;55274;43.060;25.618;2023-07-30T05:23:33;31.75;;;16.58;;
68353;SDS011;55274;43.060;25.618;2023-07-30T05:25:59;26.42;;;15.73;;
68353;SDS011;55274;43.060;25.618;2023-07-30T05:28:25;23.92;;;13.73;;
68353;SDS011;55274;43.060;25.618;2023-07-30T05:30:51;25.08;;;11.43;;
68353;SDS011;55274;43.060;25.618;2023-07-30T05:33:17;19.70;;;10.43;;
68353;SDS011;55274;43.060;25.618;2023-07-30T05:35:42;16.50;;;9.02;;
68353;SDS011;55274;43.060;25.618;2023-07-30T05:38:09;16.95;;;9.25;;
68353;SDS011;55274;43.060;25.618;2023-07-30T05:40:35;13.30;;;9.13;;
68353;SDS011;55274;43.060;25.618;2023-07-30T05:43:01;13.50;;;8.57;;
68353;SDS011;55274;43.060;25.618;2023-07-30T05:45:27;15.07;;;8.18;;
68353;SDS011;55274;43.060;25.618;2023-07-30T05:47:53;12.98;;;8.38;;
68353;SDS011;55274;43.060;25.618;2023-07-30T05:50:19;12.50;;;7.45;;
68353;SDS011;55274;43.060;25.618;2023-07-30T05:52:45;11.50;;;7.82;;
68353;SDS011;55274;43.060;25.618;2023-07-30T05:55:10;12.73;;;8.10;;
68353;SDS011;55274;43.060;25.618;2023-07-30T05:57:36;15.13;;;7.30;;
68353;SDS011;55274;43.060;25.618;2023-07-30T06:00:02;14.63;;;7.72;;
68353;SDS011;55274;43.060;25.618;2023-07-30T06:02:28;11.50;;;7.60;;
68353;SDS011;55274;43.060;25.618;2023-07-30T06:04:54;13.35;;;6.75;;
68353;SDS011;55274;43.060;25.618;2023-07-30T06:07:20;10.65;;;6.10;;
68353;SDS011;55274;43.060;25.618;2023-07-30T06:09:46;11.55;;;5.32;;
68353;SDS011;55274;43.060;25.618;2023-07-30T06:12:11;9.63;;;4.90;;
68353;SDS011;55274;43.060;25.618;2023-07-30T06:14:37;8.13;;;4.20;;
68353;SDS011;55274;43.060;25.618;2023-07-30T06:17:03;8.70;;;4.70;;
68353;SDS011;55274;43.060;25.618;2023-07-30T06:19:29;6.20;;;3.40;;
68353;SDS011;55274;43.060;25.618;2023-07-30T06:21:54;3.95;;;2.70;;
68353;SDS011;55274;43.060;25.618;2023-07-30T06:24:20;8.85;;;3.40;;
68353;SDS011;55274;43.060;25.618;2023-07-30T06:26:46;7.97;;;2.95;;
68353;SDS011;55274;43.060;25.618;2023-07-30T06:29:12;4.15;;;2.53;;
68353;SDS011;55274;43.060;25.618;2023-07-30T06:31:38;6.78;;;3.35;;
68353;SDS011;55274;43.060;25.618;2023-07-30T06:34:04;4.47;;;2.70;;
68353;SDS011;55274;43.060;25.618;2023-07-30T06:36:29;6.75;;;2.90;;
68353;SDS011;55274;43.060;25.618;2023-07-30T06:38:55;4.53;;;2.72;;
68353;SDS011;55274;43.060;25.618;2023-07-30T06:41:21;4.07;;;2.67;;
68353;SDS011;55274;43.060;25.618;2023-07-30T06:43:47;4.35;;;2.70;;
68353;SDS011;55274;43.060;25.618;2023-07-30T06:46:13;5.40;;;2.60;;
68353;SDS011;55274;43.060;25.618;2023-07-30T06:48:38;4.75;;;2.75;;
68353;SDS011;55274;43.060;25.618;2023-07-30T06:51:09;3.50;;;2.78;;
68353;SDS011;55274;43.060;25.618;2023-07-30T06:53:35;2.83;;;2.40;;
68353;SDS011;55274;43.060;25.618;2023-07-30T06:56:00;5.57;;;2.90;;
68353;SDS011;55274;43.060;25.618;2023-07-30T06:58:26;4.57;;;3.13;;
68353;SDS011;55274;43.060;25.618;2023-07-30T07:00:52;4.85;;;3.63;;
68353;SDS011;55274;43.060;25.618;2023-07-30T07:03:18;4.10;;;2.67;;
68353;SDS011;55274;43.060;25.618;2023-07-30T07:05:44;3.92;;;2.55;;
68353;SDS011;55274;43.060;25.618;2023-07-30T07:08:10;5.43;;;3.45;;
68353;SDS011;55274;43.060;25.618;2023-07-30T07:10:36;4.03;;;2.78;;
68353;SDS011;55274;43.060;25.618;2023-07-30T07:13:01;4.00;;;3.00;;
68353;SDS011;55274;43.060;25.618;2023-07-30T07:15:27;4.55;;;2.75;;
68353;SDS011;55274;43.060;25.618;2023-07-30T07:17:53;3.55;;;2.30;;
68353;SDS011;55274;43.060;25.618;2023-07-30T07:20:18;2.92;;;2.53;;
68353;SDS011;55274;43.060;25.618;2023-07-30T07:22:44;4.50;;;2.50;;
68353;SDS011;55274;43.060;25.618;2023-07-30T07:25:10;4.85;;;2.60;;
68353;SDS011;55274;43.060;25.618;2023-07-30T07:27:36;4.28;;;2.30;;
68353;SDS011;55274;43.060;25.618;2023-07-30T07:30:01;2.75;;;2.42;;
68353;SDS011;55274;43.060;25.618;2023-07-30T07:32:28;4.85;;;3.40;;
68353;SDS011;55274;43.060;25.618;2023-07-30T07:34:53;3.15;;;2.38;;
68353;SDS011;55274;43.060;25.618;2023-07-30T07:37:19;5.25;;;3.88;;
68353;SDS011;55274;43.060;25.618;2023-07-30T07:39:45;8.57;;;4.25;;
68353;SDS011;55274;43.060;25.618;2023-07-30T07:42:11;7.13;;;4.15;;
68353;SDS011;55274;43.060;25.618;2023-07-30T07:44:37;10.85;;;6.28;;
68353;SDS011;55274;43.060;25.618;2023-07-30T07:47:03;5.78;;;3.20;;
68353;SDS011;55274;43.060;25.618;2023-07-30T07:49:29;8.15;;;4.53;;
68353;SDS011;55274;43.060;25.618;2023-07-30T07:51:55;8.93;;;5.13;;
68353;SDS011;55274;43.060;25.618;2023-07-30T07:54:21;7.22;;;4.35;;
68353;SDS011;55274;43.060;25.618;2023-07-30T07:56:47;8.82;;;4.70;;
68353;SDS011;55274;43.060;25.618;2023-07-30T07:59:12;9.68;;;4.80;;
68353;SDS011;55274;43.060;25.618;2023-07-30T08:01:38;8.73;;;4.68;;
68353;SDS011;55274;43.060;25.618;2023-07-30T08:04:04;9.65;;;3.88;;
68353;SDS011;55274;43.060;25.618;2023-07-30T08:06:31;6.53;;;3.75;;
68353;SDS011;55274;43.060;25.618;2023-07-30T08:08:57;6.25;;;4.10;;
68353;SDS011;55274;43.060;25.618;2023-07-30T08:11:23;7.10;;;3.70;;
68353;SDS011;55274;43.060;25.618;2023-07-30T08:13:49;10.60;;;4.03;;
68353;SDS011;55274;43.060;25.618;2023-07-30T08:16:15;7.70;;;4.45;;
68353;SDS011;55274;43.060;25.618;2023-07-30T08:18:41;6.13;;;4.65;;
68353;SDS011;55274;43.060;25.618;2023-07-30T08:21:06;7.55;;;3.83;;
68353;SDS011;55274;43.060;25.618;2023-07-30T08:23:32;5.28;;;3.10;;
68353;SDS011;55274;43.060;25.618;2023-07-30T08:25:58;4.30;;;2.95;;
68353;SDS011;55274;43.060;25.618;2023-07-30T08:28:23;3.03;;;2.47;;
68353;SDS011;55274;43.060;25.618;2023-07-30T08:30:49;4.15;;;2.65;;
68353;SDS011;55274;43.060;25.618;2023-07-30T08:33:15;6.97;;;4.72;;
68353;SDS011;55274;43.060;25.618;2023-07-30T08:35:41;3.42;;;2.50;;
68353;SDS011;55274;43.060;25.618;2023-07-30T08:38:06;3.42;;;2.13;;
68353;SDS011;55274;43.060;25.618;2023-07-30T08:40:32;5.20;;;2.35;;
68353;SDS011;55274;43.060;25.618;2023-07-30T08:42:58;3.45;;;2.28;;
68353;SDS011;55274;43.060;25.618;2023-07-30T08:45:24;2.35;;;1.60;;
68353;SDS011;55274;43.060;25.618;2023-07-30T08:47:50;2.70;;;1.80;;
68353;SDS011;55274;43.060;25.618;2023-07-30T08:50:16;3.42;;;1.92;;
68353;SDS011;55274;43.060;25.618;2023-07-30T08:52:41;2.55;;;1.90;;
68353;SDS011;55274;43.060;25.618;2023-07-30T08:55:08;3.35;;;1.90;;
68353;SDS011;55274;43.060;25.618;2023-07-30T08:57:35;3.85;;;2.83;;
68353;SDS011;55274;43.060;25.618;2023-07-30T09:00:06;6.22;;;2.90;;
68353;SDS011;55274;43.060;25.618;2023-07-30T09:02:44;4.85;;;3.33;;
68353;SDS011;55274;43.060;25.618;2023-07-30T09:05:13;6.38;;;4.55;;
68353;SDS011;55274;43.060;25.618;2023-07-30T09:07:39;30.75;;;5.18;;
68353;SDS011;55274;43.060;25.618;2023-07-30T09:10:05;9.13;;;3.58;;
68353;SDS011;55274;43.060;25.618;2023-07-30T09:12:32;3.35;;;2.45;;
68353;SDS011;55274;43.060;25.618;2023-07-30T09:14:58;3.33;;;2.70;;
68353;SDS011;55274;43.060;25.618;2023-07-30T09:17:25;5.55;;;3.00;;
68353;SDS011;55274;43.060;25.618;2023-07-30T09:19:51;3.72;;;3.00;;
68353;SDS011;55274;43.060;25.618;2023-07-30T09:22:27;2.47;;;1.80;;
68353;SDS011;55274;43.060;25.618;2023-07-30T09:24:55;2.50;;;1.50;;
68353;SDS011;55274;43.060;25.618;2023-07-30T09:27:25;2.75;;;1.67;;
68353;SDS011;55274;43.060;25.618;2023-07-30T09:30:01;3.70;;;1.52;;
68353;SDS011;55274;43.060;25.618;2023-07-30T09:32:30;2.53;;;1.52;;
68353;SDS011;55274;43.060;25.618;2023-07-30T09:35:04;2.25;;;1.73;;
68353;SDS011;55274;43.060;25.618;2023-07-30T09:37:31;3.33;;;1.70;;
68353;SDS011;55274;43.060;25.618;2023-07-30T09:42:27;5.35;;;1.80;;
68353;SDS011;55274;43.060;25.618;2023-07-30T09:44:53;8.30;;;2.60;;
68353;SDS011;55274;43.060;25.618;2023-07-30T09:47:25;3.17;;;2.30;;
68353;SDS011;55274;43.060;25.618;2023-07-30T09:49:52;2.97;;;2.33;;
68353;SDS011;55274;43.060;25.618;2023-07-30T09:52:20;4.63;;;2.40;;
68353;SDS011;55274;43.060;25.618;2023-07-30T09:54:47;3.38;;;1.90;;
68353;SDS011;55274;43.060;25.618;2023-07-30T09:57:15;2.45;;;2.15;;
68353;SDS011;55274;43.060;25.618;2023-07-30T09:59:41;2.58;;;2.03;;
68353;SDS011;55274;43.060;25.618;2023-07-30T10:02:07;2.55;;;1.90;;
68353;SDS011;55274;43.060;25.618;2023-07-30T10:04:35;4.65;;;2.15;;
68353;SDS011;55274;43.060;25.618;2023-07-30T10:07:05;3.65;;;2.40;;
68353;SDS011;55274;43.060;25.618;2023-07-30T10:09:40;4.03;;;1.70;;
68353;SDS011;55274;43.060;25.618;2023-07-30T10:12:12;2.13;;;1.50;;
68353;SDS011;55274;43.060;25.618;2023-07-30T10:14:41;3.03;;;2.03;;
68353;SDS011;55274;43.060;25.618;2023-07-30T10:17:09;3.08;;;1.55;;
68353;SDS011;55274;43.060;25.618;2023-07-30T10:19:36;3.88;;;2.10;;
68353;SDS011;55274;43.060;25.618;2023-07-30T10:24:59;2.40;;;1.40;;
68353;SDS011;55274;43.060;25.618;2023-07-30T10:27:29;2.10;;;1.65;;
68353;SDS011;55274;43.060;25.618;2023-07-30T10:30:22;2.60;;;1.58;;
68353;SDS011;55274;43.060;25.618;2023-07-30T10:38:28;1.80;;;1.50;;
68353;SDS011;55274;43.060;25.618;2023-07-30T10:43:30;5.05;;;3.90;;
68353;SDS011;55274;43.060;25.618;2023-07-30T10:45:59;5.03;;;3.30;;
68353;SDS011;55274;43.060;25.618;2023-07-30T10:50:58;2.35;;;1.80;;
68353;SDS011;55274;43.060;25.618;2023-07-30T10:53:25;2.70;;;1.67;;
68353;SDS011;55274;43.060;25.618;2023-07-30T10:55:52;3.38;;;1.90;;
68353;SDS011;55274;43.060;25.618;2023-07-30T10:58:19;7.10;;;2.05;;
68353;SDS011;55274;43.060;25.618;2023-07-30T11:00:48;2.72;;;1.63;;
68353;SDS011;55274;43.060;25.618;2023-07-30T11:03:14;1.85;;;1.52;;
68353;SDS011;55274;43.060;25.618;2023-07-30T11:05:40;1.83;;;1.60;;
68353;SDS011;55274;43.060;25.618;2023-07-30T11:08:05;5.28;;;1.75;;
68353;SDS011;55274;43.060;25.618;2023-07-30T11:10:31;2.17;;;1.42;;
68353;SDS011;55274;43.060;25.618;2023-07-30T11:13:06;1.92;;;1.50;;
68353;SDS011;55274;43.060;25.618;2023-07-30T11:15:31;5.82;;;1.92;;
68353;SDS011;55274;43.060;25.618;2023-07-30T11:17:57;1.73;;;1.45;;
68353;SDS011;55274;43.060;25.618;2023-07-30T11:20:24;11.25;;;2.58;;
68353;SDS011;55274;43.060;25.618;2023-07-30T11:22:53;2.00;;;1.60;;
68353;SDS011;55274;43.060;25.618;2023-07-30T11:25:19;4.97;;;1.92;;
68353;SDS011;55274;43.060;25.618;2023-07-30T11:27:46;2.15;;;1.48;;
68353;SDS011;55274;43.060;25.618;2023-07-30T11:30:16;3.88;;;1.52;;
68353;SDS011;55274;43.060;25.618;2023-07-30T11:32:42;2.53;;;1.42;;
68353;SDS011;55274;43.060;25.618;2023-07-30T11:35:14;2.85;;;1.50;;
68353;SDS011;55274;43.060;25.618;2023-07-30T11:37:42;3.53;;;1.70;;
68353;SDS011;55274;43.060;25.618;2023-07-30T11:40:11;2.08;;;1.67;;
68353;SDS011;55274;43.060;25.618;2023-07-30T11:42:37;2.35;;;1.48;;
68353;SDS011;55274;43.060;25.618;2023-07-30T11:45:25;2.13;;;1.50;;
68353;SDS011;55274;43.060;25.618;2023-07-30T11:47:51;6.80;;;1.70;;
68353;SDS011;55274;43.060;25.618;2023-07-30T11:50:17;4.80;;;2.63;;
68353;SDS011;55274;43.060;25.618;2023-07-30T11:52:55;3.13;;;2.50;;
68353;SDS011;55274;43.060;25.618;2023-07-30T11:55:22;2.22;;;1.90;;
68353;SDS011;55274;43.060;25.618;2023-07-30T11:57:49;3.50;;;1.90;;
68353;SDS011;55274;43.060;25.618;2023-07-30T12:00:19;4.22;;;1.80;;
68353;SDS011;55274;43.060;25.618;2023-07-30T12:02:46;22.85;;;2.80;;
68353;SDS011;55274;43.060;25.618;2023-07-30T12:05:12;3.03;;;1.95;;
68353;SDS011;55274;43.060;25.618;2023-07-30T12:07:41;2.03;;;1.65;;
68353;SDS011;55274;43.060;25.618;2023-07-30T12:10:12;4.50;;;2.13;;
68353;SDS011;55274;43.060;25.618;2023-07-30T12:12:45;2.53;;;2.05;;
68353;SDS011;55274;43.060;25.618;2023-07-30T12:15:11;6.90;;;1.95;;
68353;SDS011;55274;43.060;25.618;2023-07-30T12:17:37;4.97;;;2.00;;
68353;SDS011;55274;43.060;25.618;2023-07-30T12:20:04;3.75;;;1.95;;
68353;SDS011;55274;43.060;25.618;2023-07-30T12:22:32;3.17;;;2.13;;
68353;SDS011;55274;43.060;25.618;2023-07-30T12:25:04;3.65;;;2.28;;
68353;SDS011;55274;43.060;25.618;2023-07-30T12:27:30;4.88;;;2.42;;
68353;SDS011;55274;43.060;25.618;2023-07-30T12:29:55;2.53;;;1.77;;
68353;SDS011;55274;43.060;25.618;2023-07-30T12:32:21;3.40;;;2.20;;
68353;SDS011;55274;43.060;25.618;2023-07-30T12:34:47;2.90;;;2.20;;
68353;SDS011;55274;43.060;25.618;2023-07-30T12:37:13;3.95;;;2.10;;
68353;SDS011;55274;43.060;25.618;2023-07-30T12:39:39;2.17;;;1.55;;
68353;SDS011;55274;43.060;25.618;2023-07-30T12:42:04;2.13;;;1.85;;
68353;SDS011;55274;43.060;25.618;2023-07-30T12:44:30;2.10;;;1.90;;
68353;SDS011;55274;43.060;25.618;2023-07-30T12:46:56;2.03;;;1.58;;
68353;SDS011;55274;43.060;25.618;2023-07-30T12:49:22;2.60;;;1.80;;
68353;SDS011;55274;43.060;25.618;2023-07-30T12:51:47;7.57;;;2.08;;
68353;SDS011;55274;43.060;25.618;2023-07-30T12:54:13;3.10;;;2.10;;
68353;SDS011;55274;43.060;25.618;2023-07-30T12:56:39;3.10;;;2.15;;
68353;SDS011;55274;43.060;25.618;2023-07-30T12:59:05;3.35;;;1.98;;
68353;SDS011;55274;43.060;25.618;2023-07-30T13:01:30;2.60;;;2.00;;
68353;SDS011;55274;43.060;25.618;2023-07-30T13:03:56;3.40;;;2.30;;
68353;SDS011;55274;43.060;25.618;2023-07-30T13:06:22;4.72;;;2.55;;
68353;SDS011;55274;43.060;25.618;2023-07-30T13:08:47;1.85;;;1.60;;
68353;SDS011;55274;43.060;25.618;2023-07-30T13:11:13;4.47;;;2.10;;
68353;SDS011;55274;43.060;25.618;2023-07-30T13:13:39;2.13;;;1.80;;
68353;SDS011;55274;43.060;25.618;2023-07-30T13:16:05;3.13;;;1.85;;
68353;SDS011;55274;43.060;25.618;2023-07-30T13:18:31;5.53;;;1.75;;
68353;SDS011;55274;43.060;25.618;2023-07-30T13:20:56;2.10;;;1.83;;
68353;SDS011;55274;43.060;25.618;2023-07-30T13:23:22;2.72;;;1.70;;
68353;SDS011;55274;43.060;25.618;2023-07-30T13:25:50;2.00;;;1.80;;
68353;SDS011;55274;43.060;25.618;2023-07-30T13:28:16;6.68;;;2.15;;
68353;SDS011;55274;43.060;25.618;2023-07-30T13:30:42;3.70;;;2.30;;
68353;SDS011;55274;43.060;25.618;2023-07-30T13:33:07;2.58;;;2.03;;
68353;SDS011;55274;43.060;25.618;2023-07-30T13:35:33;3.30;;;2.00;;
68353;SDS011;55274;43.060;25.618;2023-07-30T13:37:59;2.65;;;2.00;;
68353;SDS011;55274;43.060;25.618;2023-07-30T13:40:25;4.72;;;2.33;;
68353;SDS011;55274;43.060;25.618;2023-07-30T13:42:50;2.67;;;1.95;;
68353;SDS011;55274;43.060;25.618;2023-07-30T13:45:16;2.70;;;1.92;;
68353;SDS011;55274;43.060;25.618;2023-07-30T13:47:42;3.35;;;2.13;;
68353;SDS011;55274;43.060;25.618;2023-07-30T13:50:08;3.50;;;2.00;;
68353;SDS011;55274;43.060;25.618;2023-07-30T13:52:34;10.57;;;1.88;;
68353;SDS011;55274;43.060;25.618;2023-07-30T13:55:00;2.35;;;1.80;;
68353;SDS011;55274;43.060;25.618;2023-07-30T13:57:26;4.05;;;2.13;;
68353;SDS011;55274;43.060;25.618;2023-07-30T13:59:52;5.22;;;2.40;;
68353;SDS011;55274;43.060;25.618;2023-07-30T14:02:18;4.80;;;3.15;;
68353;SDS011;55274;43.060;25.618;2023-07-30T14:04:44;5.28;;;2.75;;
68353;SDS011;55274;43.060;25.618;2023-07-30T14:07:10;8.15;;;2.75;;
68353;SDS011;55274;43.060;25.618;2023-07-30T14:09:36;6.13;;;2.80;;
68353;SDS011;55274;43.060;25.618;2023-07-30T14:12:05;6.22;;;2.75;;
68353;SDS011;55274;43.060;25.618;2023-07-30T14:14:31;6.68;;;2.70;;
68353;SDS011;55274;43.060;25.618;2023-07-30T14:16:57;3.53;;;2.60;;
68353;SDS011;55274;43.060;25.618;2023-07-30T14:19:23;2.83;;;2.28;;
68353;SDS011;55274;43.060;25.618;2023-07-30T14:21:48;5.13;;;2.90;;
68353;SDS011;55274;43.060;25.618;2023-07-30T14:24:14;6.35;;;2.83;;
68353;SDS011;55274;43.060;25.618;2023-07-30T14:26:40;12.23;;;2.67;;
68353;SDS011;55274;43.060;25.618;2023-07-30T14:29:06;13.68;;;2.83;;
68353;SDS011;55274;43.060;25.618;2023-07-30T14:31:32;5.00;;;2.33;;
68353;SDS011;55274;43.060;25.618;2023-07-30T14:33:58;3.03;;;2.05;;
68353;SDS011;55274;43.060;25.618;2023-07-30T14:36:23;2.40;;;1.95;;
68353;SDS011;55274;43.060;25.618;2023-07-30T14:38:49;2.80;;;2.00;;
68353;SDS011;55274;43.060;25.618;2023-07-30T14:41:15;2.67;;;1.90;;
68353;SDS011;55274;43.060;25.618;2023-07-30T14:43:40;5.70;;;1.95;;